sensor_id;sensor_type;location;lat;lon;timestamp;pressure;altitude;pressure_sealevel;temperature;humidity
69784;BME280;57054;51.978;4.498;2023-02-02T00:00:34;102195.38;;;7.30;93.79
69784;BME280;57054;51.978;4.498;2023-02-02T00:02:59;102192.78;;;7.30;93.33
69784;BME280;57054;51.978;4.498;2023-02-02T00:05:25;102191.91;;;7.30;93.88
69784;BME280;57054;51.978;4.498;2023-02-02T00:07:50;102194.53;;;7.30;93.76
69784;BME280;57054;51.978;4.498;2023-02-02T00:10:16;102191.91;;;7.32;93.68
69784;BME280;57054;51.978;4.498;2023-02-02T00:12:41;102194.53;;;7.30;93.68
69784;BME280;57054;51.978;4.498;2023-02-02T00:15:07;102202.34;;;7.32;93.47
69784;BME280;57054;51.978;4.498;2023-02-02T00:17:32;102204.94;;;7.32;93.49
69784;BME280;57054;51.978;4.498;2023-02-02T00:19:58;102195.38;;;7.32;93.54
69784;BME280;57054;51.978;4.498;2023-02-02T00:22:23;102193.63;;;7.33;93.32
69784;BME280;57054;51.978;4.498;2023-02-02T00:24:49;102193.63;;;7.33;93.22
69784;BME280;57054;51.978;4.498;2023-02-02T00:27:14;102192.78;;;7.32;93.43
69784;BME280;57054;51.978;4.498;2023-02-02T00:29:39;102205.81;;;7.32;93.03
69784;BME280;57054;51.978;4.498;2023-02-02T00:32:05;102211.00;;;7.32;93.01
69784;BME280;57054;51.978;4.498;2023-02-02T00:34:30;102214.47;;;7.33;92.89
69784;BME280;57054;51.978;4.498;2023-02-02T00:36:55;102210.13;;;7.35;92.62
69784;BME280;57054;51.978;4.498;2023-02-02T00:39:23;102220.53;;;7.35;92.37
69784;BME280;57054;51.978;4.498;2023-02-02T00:41:52;102217.94;;;7.36;92.44
69784;BME280;57054;51.978;4.498;2023-02-02T00:44:17;102214.47;;;7.36;92.36
69784;BME280;57054;51.978;4.498;2023-02-02T00:47:02;102216.19;;;7.37;92.31
69784;BME280;57054;51.978;4.498;2023-02-02T00:49:27;102210.13;;;7.36;92.60
69784;BME280;57054;51.978;4.498;2023-02-02T00:51:53;102206.66;;;7.37;92.70
69784;BME280;57054;51.978;4.498;2023-02-02T00:54:19;102206.66;;;7.37;92.71
69784;BME280;57054;51.978;4.498;2023-02-02T00:56:44;102214.47;;;7.37;92.34
69784;BME280;57054;51.978;4.498;2023-02-02T00:59:09;102209.25;;;7.39;92.81
69784;BME280;57054;51.978;4.498;2023-02-02T01:01:35;102219.69;;;7.37;92.61
69784;BME280;57054;51.978;4.498;2023-02-02T01:04:01;102212.72;;;7.36;92.58
69784;BME280;57054;51.978;4.498;2023-02-02T01:06:26;102232.72;;;7.37;92.54
69784;BME280;57054;51.978;4.498;2023-02-02T01:08:52;102208.38;;;7.38;92.54
69784;BME280;57054;51.978;4.498;2023-02-02T01:11:18;102216.19;;;7.38;92.66
69784;BME280;57054;51.978;4.498;2023-02-02T01:13:43;102212.72;;;7.38;92.37
69784;BME280;57054;51.978;4.498;2023-02-02T01:16:09;102217.06;;;7.37;92.56
69784;BME280;57054;51.978;4.498;2023-02-02T01:18:35;102217.94;;;7.38;92.50
69784;BME280;57054;51.978;4.498;2023-02-02T01:21:03;102225.75;;;7.38;92.48
69784;BME280;57054;51.978;4.498;2023-02-02T01:23:29;102211.88;;;7.37;92.58
69784;BME280;57054;51.978;4.498;2023-02-02T01:25:56;102203.16;;;7.37;92.46
69784;BME280;57054;51.978;4.498;2023-02-02T01:28:22;102206.66;;;7.37;92.67
69784;BME280;57054;51.978;4.498;2023-02-02T01:30:48;102203.16;;;7.37;92.76
69784;BME280;57054;51.978;4.498;2023-02-02T01:33:15;102206.66;;;7.36;92.69
69784;BME280;57054;51.978;4.498;2023-02-02T01:36:03;102204.91;;;7.35;92.73
69784;BME280;57054;51.978;4.498;2023-02-02T01:38:29;102195.38;;;7.35;92.56
69784;BME280;57054;51.978;4.498;2023-02-02T01:40:56;102212.72;;;7.35;92.75
69784;BME280;57054;51.978;4.498;2023-02-02T01:48:41;102220.56;;;7.33;92.94
69784;BME280;57054;51.978;4.498;2023-02-02T01:51:11;102217.09;;;7.33;92.94
69784;BME280;57054;51.978;4.498;2023-02-02T01:53:38;102213.63;;;7.32;93.06
69784;BME280;57054;51.978;4.498;2023-02-02T01:56:05;102210.16;;;7.32;92.99
69784;BME280;57054;51.978;4.498;2023-02-02T01:58:34;102211.00;;;7.30;92.80
69784;BME280;57054;51.978;4.498;2023-02-02T02:04:23;102206.66;;;7.31;92.96
69784;BME280;57054;51.978;4.498;2023-02-02T02:06:49;102211.00;;;7.30;92.95
69784;BME280;57054;51.978;4.498;2023-02-02T02:09:18;102225.78;;;7.32;92.79
69784;BME280;57054;51.978;4.498;2023-02-02T02:11:43;102234.47;;;7.32;92.97
69784;BME280;57054;51.978;4.498;2023-02-02T02:14:10;102217.97;;;7.32;92.95
69784;BME280;57054;51.978;4.498;2023-02-02T02:23:39;102223.19;;;7.33;93.25
69784;BME280;57054;51.978;4.498;2023-02-02T02:26:42;102223.19;;;7.33;93.08
69784;BME280;57054;51.978;4.498;2023-02-02T02:32:35;102220.56;;;7.33;93.25
69784;BME280;57054;51.978;4.498;2023-02-02T02:37:38;102208.41;;;7.32;93.38
69784;BME280;57054;51.978;4.498;2023-02-02T02:42:51;102205.81;;;7.32;93.33
69784;BME280;57054;51.978;4.498;2023-02-02T02:45:18;102205.81;;;7.32;93.17
69784;BME280;57054;51.978;4.498;2023-02-02T02:47:44;102208.41;;;7.32;93.26
69784;BME280;57054;51.978;4.498;2023-02-02T02:50:10;102216.22;;;7.32;93.25
69784;BME280;57054;51.978;4.498;2023-02-02T02:52:36;102211.00;;;7.32;93.10
69784;BME280;57054;51.978;4.498;2023-02-02T02:55:04;102204.06;;;7.33;92.91
69784;BME280;57054;51.978;4.498;2023-02-02T03:05:25;102203.19;;;7.34;92.75
69784;BME280;57054;51.978;4.498;2023-02-02T03:10:40;102197.97;;;7.35;92.86
69784;BME280;57054;51.978;4.498;2023-02-02T03:13:09;102203.19;;;7.35;92.87
69784;BME280;57054;51.978;4.498;2023-02-02T03:15:36;102203.19;;;7.35;92.96
69784;BME280;57054;51.978;4.498;2023-02-02T03:18:04;102212.72;;;7.35;92.93
69784;BME280;57054;51.978;4.498;2023-02-02T03:20:29;102221.44;;;7.34;93.01
69784;BME280;57054;51.978;4.498;2023-02-02T03:22:55;102215.38;;;7.33;92.62
69784;BME280;57054;51.978;4.498;2023-02-02T03:25:20;102217.09;;;7.33;93.12
69784;BME280;57054;51.978;4.498;2023-02-02T03:27:45;102211.00;;;7.34;93.09
69784;BME280;57054;51.978;4.498;2023-02-02T03:30:11;102221.44;;;7.34;93.19
69784;BME280;57054;51.978;4.498;2023-02-02T03:32:38;102231.84;;;7.34;93.18
69784;BME280;57054;51.978;4.498;2023-02-02T03:35:04;102233.56;;;7.35;93.07
69784;BME280;57054;51.978;4.498;2023-02-02T03:37:30;102229.25;;;7.35;92.56
69784;BME280;57054;51.978;4.498;2023-02-02T03:39:56;102226.66;;;7.35;93.02
69784;BME280;57054;51.978;4.498;2023-02-02T03:42:21;102237.06;;;7.35;93.00
69784;BME280;57054;51.978;4.498;2023-02-02T03:44:46;102230.97;;;7.35;92.75
69784;BME280;57054;51.978;4.498;2023-02-02T03:47:12;102234.47;;;7.35;93.03
69784;BME280;57054;51.978;4.498;2023-02-02T03:49:37;102230.97;;;7.36;93.22
69784;BME280;57054;51.978;4.498;2023-02-02T03:52:03;102241.38;;;7.36;93.43
69784;BME280;57054;51.978;4.498;2023-02-02T03:54:29;102260.50;;;7.37;93.39
69784;BME280;57054;51.978;4.498;2023-02-02T03:56:54;102250.06;;;7.37;93.28
69784;BME280;57054;51.978;4.498;2023-02-02T03:59:20;102254.41;;;7.38;93.59
69784;BME280;57054;51.978;4.498;2023-02-02T04:01:45;102251.81;;;7.36;93.68
69784;BME280;57054;51.978;4.498;2023-02-02T04:04:10;102250.09;;;7.35;93.95
69784;BME280;57054;51.978;4.498;2023-02-02T04:06:36;102261.38;;;7.36;93.91
69784;BME280;57054;51.978;4.498;2023-02-02T04:09:01;102232.72;;;7.37;93.56
69784;BME280;57054;51.978;4.498;2023-02-02T04:11:27;102234.44;;;7.37;93.74
69784;BME280;57054;51.978;4.498;2023-02-02T04:13:52;102242.25;;;7.37;93.64
69784;BME280;57054;51.978;4.498;2023-02-02T04:16:18;102248.34;;;7.37;93.39
69784;BME280;57054;51.978;4.498;2023-02-02T04:18:43;102243.13;;;7.39;93.55
69784;BME280;57054;51.978;4.498;2023-02-02T04:21:08;102240.53;;;7.39;93.42
69784;BME280;57054;51.978;4.498;2023-02-02T04:23:34;102247.47;;;7.38;93.31
69784;BME280;57054;51.978;4.498;2023-02-02T04:26:00;102253.56;;;7.39;93.29
69784;BME280;57054;51.978;4.498;2023-02-02T04:28:26;102252.66;;;7.38;93.30
69784;BME280;57054;51.978;4.498;2023-02-02T04:30:53;102233.56;;;7.38;93.10
69784;BME280;57054;51.978;4.498;2023-02-02T04:33:20;102240.53;;;7.39;93.03
69784;BME280;57054;51.978;4.498;2023-02-02T04:35:46;102244.84;;;7.38;93.08
69784;BME280;57054;51.978;4.498;2023-02-02T04:38:12;102250.06;;;7.38;92.83
69784;BME280;57054;51.978;4.498;2023-02-02T04:40:39;102255.28;;;7.38;92.62
69784;BME280;57054;51.978;4.498;2023-02-02T04:43:04;102262.25;;;7.39;92.88
69784;BME280;57054;51.978;4.498;2023-02-02T04:45:30;102252.66;;;7.40;92.98
69784;BME280;57054;51.978;4.498;2023-02-02T04:47:55;102260.50;;;7.40;93.17
69784;BME280;57054;51.978;4.498;2023-02-02T04:50:21;102259.63;;;7.39;93.09
69784;BME280;57054;51.978;4.498;2023-02-02T04:52:46;102263.09;;;7.40;93.33
69784;BME280;57054;51.978;4.498;2023-02-02T04:55:12;102251.81;;;7.39;93.25
69784;BME280;57054;51.978;4.498;2023-02-02T04:57:37;102244.84;;;7.38;93.37
69784;BME280;57054;51.978;4.498;2023-02-02T05:00:03;102265.69;;;7.38;93.09
69784;BME280;57054;51.978;4.498;2023-02-02T05:02:29;102254.41;;;7.39;93.14
69784;BME280;57054;51.978;4.498;2023-02-02T05:04:54;102263.94;;;7.40;93.03
69784;BME280;57054;51.978;4.498;2023-02-02T05:07:19;102257.03;;;7.39;93.11
69784;BME280;57054;51.978;4.498;2023-02-02T05:09:45;102259.63;;;7.39;93.02
69784;BME280;57054;51.978;4.498;2023-02-02T05:12:10;102257.03;;;7.39;93.21
69784;BME280;57054;51.978;4.498;2023-02-02T05:14:35;102262.25;;;7.39;93.20
69784;BME280;57054;51.978;4.498;2023-02-02T05:17:01;102262.25;;;7.39;92.98
69784;BME280;57054;51.978;4.498;2023-02-02T05:19:26;102273.53;;;7.38;93.23
69784;BME280;57054;51.978;4.498;2023-02-02T05:21:52;102269.19;;;7.39;93.11
69784;BME280;57054;51.978;4.498;2023-02-02T05:24:18;102263.09;;;7.38;92.91
69784;BME280;57054;51.978;4.498;2023-02-02T05:26:44;102264.84;;;7.38;93.28
69784;BME280;57054;51.978;4.498;2023-02-02T05:29:09;102251.81;;;7.38;93.04
69784;BME280;57054;51.978;4.498;2023-02-02T05:31:35;102266.59;;;7.37;93.16
69784;BME280;57054;51.978;4.498;2023-02-02T05:34:00;102275.28;;;7.36;93.34
69784;BME280;57054;51.978;4.498;2023-02-02T05:36:26;102261.38;;;7.37;93.28
69784;BME280;57054;51.978;4.498;2023-02-02T05:38:52;102267.44;;;7.36;93.30
69784;BME280;57054;51.978;4.498;2023-02-02T05:41:17;102264.84;;;7.36;93.15
69784;BME280;57054;51.978;4.498;2023-02-02T05:43:42;102265.69;;;7.37;93.43
69784;BME280;57054;51.978;4.498;2023-02-02T05:46:08;102258.78;;;7.34;93.25
69784;BME280;57054;51.978;4.498;2023-02-02T05:48:33;102257.06;;;7.33;93.55
69784;BME280;57054;51.978;4.498;2023-02-02T05:51:28;102264.88;;;7.33;93.15
69784;BME280;57054;51.978;4.498;2023-02-02T05:53:55;102271.81;;;7.34;93.32
69784;BME280;57054;51.978;4.498;2023-02-02T05:56:20;102260.53;;;7.34;93.29
69784;BME280;57054;51.978;4.498;2023-02-02T05:58:46;102273.56;;;7.34;93.41
69784;BME280;57054;51.978;4.498;2023-02-02T06:01:14;102276.16;;;7.34;93.60
69784;BME280;57054;51.978;4.498;2023-02-02T06:03:40;102267.50;;;7.33;93.65
69784;BME280;57054;51.978;4.498;2023-02-02T06:06:05;102271.81;;;7.33;93.87
69784;BME280;57054;51.978;4.498;2023-02-02T06:08:30;102273.56;;;7.34;93.64
69784;BME280;57054;51.978;4.498;2023-02-02T06:10:56;102276.16;;;7.34;93.75
69784;BME280;57054;51.978;4.498;2023-02-02T06:13:21;102278.78;;;7.32;93.57
69784;BME280;57054;51.978;4.498;2023-02-02T06:15:47;102287.44;;;7.34;93.79
69784;BME280;57054;51.978;4.498;2023-02-02T06:18:12;102276.16;;;7.35;93.62
69784;BME280;57054;51.978;4.498;2023-02-02T06:20:37;102293.56;;;7.33;93.58
69784;BME280;57054;51.978;4.498;2023-02-02T06:23:04;102290.91;;;7.35;93.73
69784;BME280;57054;51.978;4.498;2023-02-02T06:25:29;102292.66;;;7.34;93.58
69784;BME280;57054;51.978;4.498;2023-02-02T06:27:58;102295.25;;;7.34;93.50
69784;BME280;57054;51.978;4.498;2023-02-02T06:30:24;102296.13;;;7.35;93.21
69784;BME280;57054;51.978;4.498;2023-02-02T06:32:49;102302.22;;;7.35;93.48
69784;BME280;57054;51.978;4.498;2023-02-02T06:35:15;102312.66;;;7.35;93.42
69784;BME280;57054;51.978;4.498;2023-02-02T06:37:41;102327.41;;;7.35;93.62
69784;BME280;57054;51.978;4.498;2023-02-02T06:40:07;102326.53;;;7.37;93.69
69784;BME280;57054;51.978;4.498;2023-02-02T06:42:33;102338.72;;;7.35;93.85
69784;BME280;57054;51.978;4.498;2023-02-02T06:45:00;102327.41;;;7.36;93.78
69784;BME280;57054;51.978;4.498;2023-02-02T06:47:26;102328.25;;;7.37;93.89
69784;BME280;57054;51.978;4.498;2023-02-02T06:49:51;102303.09;;;7.36;93.90
69784;BME280;57054;51.978;4.498;2023-02-02T06:52:17;102318.72;;;7.36;93.99
69784;BME280;57054;51.978;4.498;2023-02-02T06:54:42;102304.84;;;7.35;93.96
69784;BME280;57054;51.978;4.498;2023-02-02T06:57:07;102314.38;;;7.35;93.82
69784;BME280;57054;51.978;4.498;2023-02-02T06:59:33;102298.75;;;7.33;93.80
69784;BME280;57054;51.978;4.498;2023-02-02T07:01:59;102316.97;;;7.35;93.79
69784;BME280;57054;51.978;4.498;2023-02-02T07:04:24;102308.31;;;7.33;93.60
69784;BME280;57054;51.978;4.498;2023-02-02T07:06:49;102317.00;;;7.32;93.58
69784;BME280;57054;51.978;4.498;2023-02-02T07:09:15;102315.25;;;7.32;93.47
69784;BME280;57054;51.978;4.498;2023-02-02T07:11:40;102322.22;;;7.32;93.44
69784;BME280;57054;51.978;4.498;2023-02-02T07:14:06;102333.50;;;7.32;93.51
69784;BME280;57054;51.978;4.498;2023-02-02T07:16:32;102333.50;;;7.30;93.30
69784;BME280;57054;51.978;4.498;2023-02-02T07:18:57;102336.97;;;7.31;93.30
69784;BME280;57054;51.978;4.498;2023-02-02T07:21:24;102333.50;;;7.30;93.25
69784;BME280;57054;51.978;4.498;2023-02-02T07:23:50;102343.06;;;7.30;93.18
69784;BME280;57054;51.978;4.498;2023-02-02T07:26:17;102339.59;;;7.28;93.08
69784;BME280;57054;51.978;4.498;2023-02-02T07:28:43;102342.22;;;7.29;93.07
69784;BME280;57054;51.978;4.498;2023-02-02T07:31:17;102363.91;;;7.27;93.06
69784;BME280;57054;51.978;4.498;2023-02-02T07:33:44;102357.84;;;7.26;92.80
69784;BME280;57054;51.978;4.498;2023-02-02T07:36:10;102353.50;;;7.27;92.77
69784;BME280;57054;51.978;4.498;2023-02-02T07:38:36;102357.84;;;7.25;93.01
69784;BME280;57054;51.978;4.498;2023-02-02T07:41:02;102371.72;;;7.25;93.07
69784;BME280;57054;51.978;4.498;2023-02-02T07:43:28;102371.72;;;7.25;93.02
69784;BME280;57054;51.978;4.498;2023-02-02T07:45:53;102369.13;;;7.25;92.69
69784;BME280;57054;51.978;4.498;2023-02-02T07:48:19;102369.13;;;7.24;92.88
69784;BME280;57054;51.978;4.498;2023-02-02T07:50:45;102383.91;;;7.25;93.05
69784;BME280;57054;51.978;4.498;2023-02-02T07:53:10;102388.25;;;7.24;93.15
69784;BME280;57054;51.978;4.498;2023-02-02T07:55:36;102389.13;;;7.23;93.23
69784;BME280;57054;51.978;4.498;2023-02-02T07:58:01;102383.91;;;7.23;93.45
69784;BME280;57054;51.978;4.498;2023-02-02T08:00:27;102393.47;;;7.23;93.70
69784;BME280;57054;51.978;4.498;2023-02-02T08:02:53;102383.91;;;7.23;93.70
69784;BME280;57054;51.978;4.498;2023-02-02T08:05:19;102399.53;;;7.22;93.82
69784;BME280;57054;51.978;4.498;2023-02-02T08:07:46;102391.72;;;7.22;93.88
69784;BME280;57054;51.978;4.498;2023-02-02T08:10:12;102382.19;;;7.21;93.75
69784;BME280;57054;51.978;4.498;2023-02-02T08:12:38;102387.41;;;7.21;94.02
69784;BME280;57054;51.978;4.498;2023-02-02T08:15:04;102390.00;;;7.21;94.09
69784;BME280;57054;51.978;4.498;2023-02-02T08:17:29;102385.66;;;7.21;94.10
69784;BME280;57054;51.978;4.498;2023-02-02T08:19:54;102396.06;;;7.20;93.93
69784;BME280;57054;51.978;4.498;2023-02-02T08:22:20;102383.94;;;7.19;94.17
69784;BME280;57054;51.978;4.498;2023-02-02T08:24:45;102396.06;;;7.20;94.32
69784;BME280;57054;51.978;4.498;2023-02-02T08:27:11;102404.75;;;7.20;94.09
69784;BME280;57054;51.978;4.498;2023-02-02T08:29:37;102403.88;;;7.20;94.23
69784;BME280;57054;51.978;4.498;2023-02-02T08:32:03;102402.13;;;7.22;94.50
69784;BME280;57054;51.978;4.498;2023-02-02T08:34:29;102409.09;;;7.23;94.34
69784;BME280;57054;51.978;4.498;2023-02-02T08:36:54;102406.50;;;7.23;94.23
69784;BME280;57054;51.978;4.498;2023-02-02T08:39:19;102403.88;;;7.23;94.20
69784;BME280;57054;51.978;4.498;2023-02-02T08:41:45;102415.19;;;7.25;94.05
69784;BME280;57054;51.978;4.498;2023-02-02T08:44:14;102423.00;;;7.25;93.95
69784;BME280;57054;51.978;4.498;2023-02-02T08:46:41;102425.59;;;7.26;94.02
69784;BME280;57054;51.978;4.498;2023-02-02T08:49:09;102423.84;;;7.25;94.00
69784;BME280;57054;51.978;4.498;2023-02-02T08:51:34;102414.31;;;7.26;94.05
69784;BME280;57054;51.978;4.498;2023-02-02T08:54:00;102424.75;;;7.26;93.88
69784;BME280;57054;51.978;4.498;2023-02-02T08:56:25;102423.00;;;7.26;94.22
69784;BME280;57054;51.978;4.498;2023-02-02T08:58:53;102427.31;;;7.27;93.90
69784;BME280;57054;51.978;4.498;2023-02-02T09:01:23;102429.06;;;7.28;94.14
69784;BME280;57054;51.978;4.498;2023-02-02T09:03:56;102423.84;;;7.28;93.91
69784;BME280;57054;51.978;4.498;2023-02-02T09:06:29;102435.13;;;7.29;94.13
69784;BME280;57054;51.978;4.498;2023-02-02T09:08:55;102433.44;;;7.29;93.92
69784;BME280;57054;51.978;4.498;2023-02-02T09:11:20;102438.63;;;7.29;93.77
69784;BME280;57054;51.978;4.498;2023-02-02T09:13:47;102440.34;;;7.30;93.94
69784;BME280;57054;51.978;4.498;2023-02-02T09:16:16;102439.50;;;7.32;93.86
69784;BME280;57054;51.978;4.498;2023-02-02T09:18:43;102453.38;;;7.32;94.08
69784;BME280;57054;51.978;4.498;2023-02-02T09:21:10;102453.38;;;7.32;94.16
69784;BME280;57054;51.978;4.498;2023-02-02T09:23:38;102450.78;;;7.34;93.88
69784;BME280;57054;51.978;4.498;2023-02-02T09:28:43;102462.94;;;7.35;93.69
69784;BME280;57054;51.978;4.498;2023-02-02T09:31:10;102447.28;;;7.36;93.89
69784;BME280;57054;51.978;4.498;2023-02-02T09:33:35;102455.13;;;7.38;93.99
69784;BME280;57054;51.978;4.498;2023-02-02T09:36:22;102466.41;;;7.40;93.62
69784;BME280;57054;51.978;4.498;2023-02-02T09:38:49;102461.19;;;7.41;93.79
69784;BME280;57054;51.978;4.498;2023-02-02T09:49:14;102455.06;;;7.56;93.35
69784;BME280;57054;51.978;4.498;2023-02-02T09:51:52;102450.72;;;7.58;93.12
69784;BME280;57054;51.978;4.498;2023-02-02T09:54:26;102468.97;;;7.60;93.09
69784;BME280;57054;51.978;4.498;2023-02-02T09:56:54;102447.25;;;7.59;92.39
69784;BME280;57054;51.978;4.498;2023-02-02T09:59:25;102462.91;;;7.61;92.42
69784;BME280;57054;51.978;4.498;2023-02-02T10:01:55;102454.19;;;7.62;92.40
69784;BME280;57054;51.978;4.498;2023-02-02T10:04:28;102464.63;;;7.62;92.13
69784;BME280;57054;51.978;4.498;2023-02-02T10:07:06;102471.59;;;7.61;92.19
69784;BME280;57054;51.978;4.498;2023-02-02T10:09:47;102488.09;;;7.62;91.92
69784;BME280;57054;51.978;4.498;2023-02-02T10:12:34;102485.47;;;7.62;91.63
69784;BME280;57054;51.978;4.498;2023-02-02T10:15:22;102482.88;;;7.62;91.82
69784;BME280;57054;51.978;4.498;2023-02-02T10:17:54;102468.97;;;7.63;91.64
69784;BME280;57054;51.978;4.498;2023-02-02T10:23:10;102469.84;;;7.63;91.91
69784;BME280;57054;51.978;4.498;2023-02-02T10:25:40;102482.00;;;7.66;91.69
69784;BME280;57054;51.978;4.498;2023-02-02T10:28:16;102472.44;;;7.68;91.52
69784;BME280;57054;51.978;4.498;2023-02-02T10:30:52;102488.94;;;7.70;91.46
69784;BME280;57054;51.978;4.498;2023-02-02T10:33:36;102487.22;;;7.72;90.84
69784;BME280;57054;51.978;4.498;2023-02-02T10:36:23;102504.56;;;7.75;90.92
69784;BME280;57054;51.978;4.498;2023-02-02T10:39:04;102505.47;;;7.77;90.69
69784;BME280;57054;51.978;4.498;2023-02-02T10:44:19;102512.41;;;7.76;90.59
69784;BME280;57054;51.978;4.498;2023-02-02T10:46:51;102511.53;;;7.77;91.05
69784;BME280;57054;51.978;4.498;2023-02-02T10:49:26;102520.22;;;7.78;90.75
69784;BME280;57054;51.978;4.498;2023-02-02T10:52:06;102505.44;;;7.78;91.06
69784;BME280;57054;51.978;4.498;2023-02-02T10:57:11;102490.66;;;7.80;91.08
69784;BME280;57054;51.978;4.498;2023-02-02T10:59:56;102492.41;;;7.83;91.70
69784;BME280;57054;51.978;4.498;2023-02-02T11:02:24;102496.72;;;7.85;91.94
69784;BME280;57054;51.978;4.498;2023-02-02T11:04:50;102494.13;;;7.87;91.64
69784;BME280;57054;51.978;4.498;2023-02-02T11:07:35;102497.59;;;7.87;91.63
69784;BME280;57054;51.978;4.498;2023-02-02T11:10:00;102491.50;;;7.88;91.87
69784;BME280;57054;51.978;4.498;2023-02-02T11:12:34;102487.16;;;7.91;91.93
69784;BME280;57054;51.978;4.498;2023-02-02T11:15:05;102500.19;;;7.91;91.46
69784;BME280;57054;51.978;4.498;2023-02-02T11:17:31;102508.88;;;7.91;91.62
69784;BME280;57054;51.978;4.498;2023-02-02T11:19:58;102499.34;;;7.92;91.67
69784;BME280;57054;51.978;4.498;2023-02-02T11:22:32;102497.59;;;7.92;91.34
69784;BME280;57054;51.978;4.498;2023-02-02T11:25:36;102505.41;;;7.92;90.99
69784;BME280;57054;51.978;4.498;2023-02-02T11:28:13;102502.81;;;7.94;91.48
69784;BME280;57054;51.978;4.498;2023-02-02T11:30:46;102501.94;;;7.92;91.96
69784;BME280;57054;51.978;4.498;2023-02-02T11:35:57;102502.81;;;7.92;92.06
69784;BME280;57054;51.978;4.498;2023-02-02T11:38:23;102502.81;;;7.91;92.11
69784;BME280;57054;51.978;4.498;2023-02-02T11:40:58;102503.69;;;7.90;92.22
69784;BME280;57054;51.978;4.498;2023-02-02T11:46:23;102506.31;;;7.86;92.27
69784;BME280;57054;51.978;4.498;2023-02-02T11:49:05;102501.94;;;7.85;92.53
69784;BME280;57054;51.978;4.498;2023-02-02T11:51:37;102501.94;;;7.85;92.82
69784;BME280;57054;51.978;4.498;2023-02-02T11:56:34;102500.22;;;7.84;92.34
69784;BME280;57054;51.978;4.498;2023-02-02T11:59:00;102514.13;;;7.83;92.40
69784;BME280;57054;51.978;4.498;2023-02-02T12:01:31;102494.16;;;7.82;92.55
69784;BME280;57054;51.978;4.498;2023-02-02T12:04:03;102495.88;;;7.83;92.52
69784;BME280;57054;51.978;4.498;2023-02-02T12:06:45;102495.00;;;7.84;92.60
69784;BME280;57054;51.978;4.498;2023-02-02T12:09:13;102506.28;;;7.85;92.64
69784;BME280;57054;51.978;4.498;2023-02-02T12:22:44;102489.78;;;7.83;94.44
69784;BME280;57054;51.978;4.498;2023-02-02T12:27:48;102489.78;;;7.78;94.65
69784;BME280;57054;51.978;4.498;2023-02-02T12:33:16;102501.97;;;7.76;95.74
69784;BME280;57054;51.978;4.498;2023-02-02T12:44:25;102494.19;;;7.62;100.00
69784;BME280;57054;51.978;4.498;2023-02-02T12:47:16;102484.63;;;7.58;100.00
69784;BME280;57054;51.978;4.498;2023-02-02T12:55:14;102492.47;;;7.46;100.00
69784;BME280;57054;51.978;4.498;2023-02-02T12:57:44;102485.50;;;7.43;100.00
69784;BME280;57054;51.978;4.498;2023-02-02T13:08:22;102467.28;;;7.39;100.00
69784;BME280;57054;51.978;4.498;2023-02-02T13:10:59;102469.91;;;7.39;100.00
69784;BME280;57054;51.978;4.498;2023-02-02T13:13:36;102466.41;;;7.37;100.00
69784;BME280;57054;51.978;4.498;2023-02-02T13:16:06;102468.16;;;7.33;100.00
69784;BME280;57054;51.978;4.498;2023-02-02T13:18:37;102471.63;;;7.29;100.00
69784;BME280;57054;51.978;4.498;2023-02-02T13:21:07;102474.22;;;7.27;100.00
69784;BME280;57054;51.978;4.498;2023-02-02T13:23:39;102473.38;;;7.27;100.00
69784;BME280;57054;51.978;4.498;2023-02-02T13:26:22;102462.09;;;7.25;100.00
69784;BME280;57054;51.978;4.498;2023-02-02T13:28:58;102467.28;;;7.23;100.00
69784;BME280;57054;51.978;4.498;2023-02-02T13:31:54;102471.63;;;7.20;100.00
69784;BME280;57054;51.978;4.498;2023-02-02T13:34:25;102470.78;;;7.18;100.00
69784;BME280;57054;51.978;4.498;2023-02-02T13:36:56;102469.03;;;7.18;100.00
69784;BME280;57054;51.978;4.498;2023-02-02T13:39:39;102465.56;;;7.18;100.00
69784;BME280;57054;51.978;4.498;2023-02-02T13:42:16;102470.78;;;7.18;100.00
69784;BME280;57054;51.978;4.498;2023-02-02T13:44:53;102468.16;;;7.18;100.00
69784;BME280;57054;51.978;4.498;2023-02-02T13:47:37;102471.63;;;7.18;100.00
69784;BME280;57054;51.978;4.498;2023-02-02T13:50:12;102469.91;;;7.17;100.00
69784;BME280;57054;51.978;4.498;2023-02-02T13:58:30;102469.91;;;7.14;100.00
69784;BME280;57054;51.978;4.498;2023-02-02T14:01:05;102474.25;;;7.12;100.00
69784;BME280;57054;51.978;4.498;2023-02-02T14:08:32;102473.38;;;7.11;100.00
69784;BME280;57054;51.978;4.498;2023-02-02T14:11:00;102469.91;;;7.11;100.00
69784;BME280;57054;51.978;4.498;2023-02-02T14:19:03;102483.81;;;7.08;100.00
69784;BME280;57054;51.978;4.498;2023-02-02T14:26:52;102485.53;;;7.11;100.00
69784;BME280;57054;51.978;4.498;2023-02-02T14:34:26;102487.28;;;7.15;100.00
69784;BME280;57054;51.978;4.498;2023-02-02T14:37:01;102495.97;;;7.16;100.00
69784;BME280;57054;51.978;4.498;2023-02-02T14:47:51;102506.38;;;7.16;100.00
69784;BME280;57054;51.978;4.498;2023-02-02T14:50:29;102508.13;;;7.15;100.00
69784;BME280;57054;51.978;4.498;2023-02-02T14:53:24;102505.50;;;7.12;100.00
69784;BME280;57054;51.978;4.498;2023-02-02T14:56:08;102507.25;;;7.15;100.00
69784;BME280;57054;51.978;4.498;2023-02-02T14:58:37;102501.19;;;7.17;100.00
69784;BME280;57054;51.978;4.498;2023-02-02T15:03:47;102515.94;;;7.18;100.00
69784;BME280;57054;51.978;4.498;2023-02-02T15:06:34;102501.19;;;7.19;100.00
69784;BME280;57054;51.978;4.498;2023-02-02T15:12:13;102505.50;;;7.20;100.00
69784;BME280;57054;51.978;4.498;2023-02-02T15:17:43;102497.69;;;7.23;100.00
69784;BME280;57054;51.978;4.498;2023-02-02T15:25:43;102498.56;;;7.28;100.00
69784;BME280;57054;51.978;4.498;2023-02-02T15:28:43;102501.19;;;7.29;100.00
69784;BME280;57054;51.978;4.498;2023-02-02T15:33:52;102506.38;;;7.33;100.00
69784;BME280;57054;51.978;4.498;2023-02-02T15:36:23;102503.78;;;7.34;100.00
69784;BME280;57054;51.978;4.498;2023-02-02T15:38:52;102502.91;;;7.35;100.00
69784;BME280;57054;51.978;4.498;2023-02-02T15:41:23;102502.03;;;7.35;100.00